sensor_id;sensor_type;location;lat;lon;timestamp;P1;durP1;ratioP1;P2;durP2;ratioP2
12818;SDS011;6474;53.474;9.894;2023-03-23T00:01:31;2.00;;;1.90;;
12818;SDS011;6474;53.474;9.894;2023-03-23T00:04:03;1.57;;;1.57;;
12818;SDS011;6474;53.474;9.894;2023-03-23T00:06:30;2.07;;;1.97;;
12818;SDS011;6474;53.474;9.894;2023-03-23T00:08:58;2.37;;;2.17;;
12818;SDS011;6474;53.474;9.894;2023-03-23T00:11:27;1.90;;;1.80;;
12818;SDS011;6474;53.474;9.894;2023-03-23T00:13:56;2.43;;;2.30;;
12818;SDS011;6474;53.474;9.894;2023-03-23T00:16:26;2.07;;;1.93;;
12818;SDS011;6474;53.474;9.894;2023-03-23T00:18:59;1.90;;;1.90;;
12818;SDS011;6474;53.474;9.894;2023-03-23T00:21:29;2.07;;;1.97;;
12818;SDS011;6474;53.474;9.894;2023-03-23T00:24:01;2.23;;;2.13;;
12818;SDS011;6474;53.474;9.894;2023-03-23T00:29:00;2.10;;;2.00;;
12818;SDS011;6474;53.474;9.894;2023-03-23T00:31:27;1.83;;;1.73;;
12818;SDS011;6474;53.474;9.894;2023-03-23T00:34:00;2.47;;;2.37;;
12818;SDS011;6474;53.474;9.894;2023-03-23T00:36:30;2.20;;;2.10;;
12818;SDS011;6474;53.474;9.894;2023-03-23T00:38:59;2.87;;;2.57;;
12818;SDS011;6474;53.474;9.894;2023-03-23T00:41:27;2.37;;;2.17;;
12818;SDS011;6474;53.474;9.894;2023-03-23T00:43:54;6.13;;;3.67;;
12818;SDS011;6474;53.474;9.894;2023-03-23T00:46:23;2.90;;;2.77;;
12818;SDS011;6474;53.474;9.894;2023-03-23T00:48:50;5.23;;;2.83;;
12818;SDS011;6474;53.474;9.894;2023-03-23T00:51:17;2.57;;;2.37;;
12818;SDS011;6474;53.474;9.894;2023-03-23T00:53:46;2.70;;;2.60;;
12818;SDS011;6474;53.474;9.894;2023-03-23T00:56:13;2.73;;;2.53;;
12818;SDS011;6474;53.474;9.894;2023-03-23T00:58:40;3.93;;;2.23;;
12818;SDS011;6474;53.474;9.894;2023-03-23T01:01:08;2.30;;;2.20;;
12818;SDS011;6474;53.474;9.894;2023-03-23T01:03:35;2.50;;;2.33;;
12818;SDS011;6474;53.474;9.894;2023-03-23T01:06:06;2.03;;;1.93;;
12818;SDS011;6474;53.474;9.894;2023-03-23T01:08:37;2.13;;;1.93;;
12818;SDS011;6474;53.474;9.894;2023-03-23T01:11:12;2.13;;;2.03;;
12818;SDS011;6474;53.474;9.894;2023-03-23T01:13:40;2.23;;;2.13;;
12818;SDS011;6474;53.474;9.894;2023-03-23T01:16:08;2.20;;;2.10;;
12818;SDS011;6474;53.474;9.894;2023-03-23T01:18:36;2.20;;;2.10;;
12818;SDS011;6474;53.474;9.894;2023-03-23T01:21:04;3.27;;;3.00;;
12818;SDS011;6474;53.474;9.894;2023-03-23T01:23:32;2.70;;;2.60;;
12818;SDS011;6474;53.474;9.894;2023-03-23T01:26:02;2.43;;;2.33;;
12818;SDS011;6474;53.474;9.894;2023-03-23T01:28:31;2.80;;;2.70;;
12818;SDS011;6474;53.474;9.894;2023-03-23T01:31:01;2.63;;;2.50;;
12818;SDS011;6474;53.474;9.894;2023-03-23T01:33:30;3.17;;;2.07;;
12818;SDS011;6474;53.474;9.894;2023-03-23T01:35:58;2.53;;;2.43;;
12818;SDS011;6474;53.474;9.894;2023-03-23T01:38:29;2.60;;;2.40;;
12818;SDS011;6474;53.474;9.894;2023-03-23T01:40:56;4.23;;;2.83;;
12818;SDS011;6474;53.474;9.894;2023-03-23T01:43:22;2.30;;;2.20;;
12818;SDS011;6474;53.474;9.894;2023-03-23T01:45:51;2.37;;;2.27;;
12818;SDS011;6474;53.474;9.894;2023-03-23T01:48:18;2.17;;;2.00;;
12818;SDS011;6474;53.474;9.894;2023-03-23T01:50:52;2.80;;;2.40;;
12818;SDS011;6474;53.474;9.894;2023-03-23T01:53:23;2.90;;;2.70;;
12818;SDS011;6474;53.474;9.894;2023-03-23T01:55:54;4.97;;;2.37;;
12818;SDS011;6474;53.474;9.894;2023-03-23T01:58:23;2.43;;;2.33;;
12818;SDS011;6474;53.474;9.894;2023-03-23T02:00:54;2.47;;;2.27;;
12818;SDS011;6474;53.474;9.894;2023-03-23T02:03:24;2.23;;;2.13;;
12818;SDS011;6474;53.474;9.894;2023-03-23T02:05:51;2.90;;;2.50;;
12818;SDS011;6474;53.474;9.894;2023-03-23T02:08:18;2.17;;;1.97;;
12818;SDS011;6474;53.474;9.894;2023-03-23T02:10:46;1.87;;;1.83;;
12818;SDS011;6474;53.474;9.894;2023-03-23T02:13:12;3.03;;;2.00;;
12818;SDS011;6474;53.474;9.894;2023-03-23T02:15:43;2.03;;;1.93;;
12818;SDS011;6474;53.474;9.894;2023-03-23T02:18:23;1.77;;;1.77;;
12818;SDS011;6474;53.474;9.894;2023-03-23T02:24:40;2.17;;;2.07;;
12818;SDS011;6474;53.474;9.894;2023-03-23T02:27:21;1.73;;;1.73;;
12818;SDS011;6474;53.474;9.894;2023-03-23T02:30:09;2.67;;;2.47;;
12818;SDS011;6474;53.474;9.894;2023-03-23T02:32:55;2.03;;;1.93;;
12818;SDS011;6474;53.474;9.894;2023-03-23T02:35:46;2.67;;;2.00;;
12818;SDS011;6474;53.474;9.894;2023-03-23T02:38:16;2.17;;;2.07;;
12818;SDS011;6474;53.474;9.894;2023-03-23T02:40:47;4.27;;;2.43;;
12818;SDS011;6474;53.474;9.894;2023-03-23T02:43:17;1.73;;;1.73;;
12818;SDS011;6474;53.474;9.894;2023-03-23T02:45:46;1.47;;;1.47;;
12818;SDS011;6474;53.474;9.894;2023-03-23T02:48:15;2.10;;;1.90;;
12818;SDS011;6474;53.474;9.894;2023-03-23T02:50:44;2.43;;;2.33;;
12818;SDS011;6474;53.474;9.894;2023-03-23T02:53:19;2.17;;;2.07;;
12818;SDS011;6474;53.474;9.894;2023-03-23T02:55:49;1.57;;;1.57;;
12818;SDS011;6474;53.474;9.894;2023-03-23T02:58:18;2.13;;;2.03;;
12818;SDS011;6474;53.474;9.894;2023-03-23T03:00:45;1.60;;;1.60;;
12818;SDS011;6474;53.474;9.894;2023-03-23T03:03:15;1.93;;;1.93;;
12818;SDS011;6474;53.474;9.894;2023-03-23T03:05:44;2.23;;;2.13;;
12818;SDS011;6474;53.474;9.894;2023-03-23T03:08:26;2.53;;;2.43;;
12818;SDS011;6474;53.474;9.894;2023-03-23T03:11:02;1.93;;;1.87;;
12818;SDS011;6474;53.474;9.894;2023-03-23T03:13:35;3.83;;;2.43;;
12818;SDS011;6474;53.474;9.894;2023-03-23T03:16:12;2.30;;;2.20;;
12818;SDS011;6474;53.474;9.894;2023-03-23T03:18:46;2.00;;;1.90;;
12818;SDS011;6474;53.474;9.894;2023-03-23T03:21:19;2.77;;;2.57;;
12818;SDS011;6474;53.474;9.894;2023-03-23T03:23:50;2.00;;;1.90;;
12818;SDS011;6474;53.474;9.894;2023-03-23T03:26:21;2.43;;;2.33;;
12818;SDS011;6474;53.474;9.894;2023-03-23T03:28:51;3.13;;;2.07;;
12818;SDS011;6474;53.474;9.894;2023-03-23T03:31:19;2.57;;;2.47;;
12818;SDS011;6474;53.474;9.894;2023-03-23T03:33:48;2.70;;;2.60;;
12818;SDS011;6474;53.474;9.894;2023-03-23T03:36:16;3.00;;;2.83;;
12818;SDS011;6474;53.474;9.894;2023-03-23T03:38:48;2.00;;;1.90;;
12818;SDS011;6474;53.474;9.894;2023-03-23T03:41:17;3.33;;;3.13;;
12818;SDS011;6474;53.474;9.894;2023-03-23T03:43:44;3.17;;;2.97;;
12818;SDS011;6474;53.474;9.894;2023-03-23T03:46:11;2.13;;;2.13;;
12818;SDS011;6474;53.474;9.894;2023-03-23T03:48:38;2.43;;;2.33;;
12818;SDS011;6474;53.474;9.894;2023-03-23T03:51:05;2.07;;;1.97;;
12818;SDS011;6474;53.474;9.894;2023-03-23T03:53:35;2.80;;;2.60;;
12818;SDS011;6474;53.474;9.894;2023-03-23T03:56:02;2.83;;;2.63;;
12818;SDS011;6474;53.474;9.894;2023-03-23T03:58:30;1.80;;;1.80;;
12818;SDS011;6474;53.474;9.894;2023-03-23T04:00:57;2.30;;;2.17;;
12818;SDS011;6474;53.474;9.894;2023-03-23T04:03:25;2.57;;;2.40;;
12818;SDS011;6474;53.474;9.894;2023-03-23T04:05:53;2.67;;;2.43;;
12818;SDS011;6474;53.474;9.894;2023-03-23T04:08:20;2.57;;;2.33;;
12818;SDS011;6474;53.474;9.894;2023-03-23T04:10:49;2.57;;;2.47;;
12818;SDS011;6474;53.474;9.894;2023-03-23T04:13:16;3.17;;;2.87;;
12818;SDS011;6474;53.474;9.894;2023-03-23T04:15:43;1.73;;;1.63;;
12818;SDS011;6474;53.474;9.894;2023-03-23T04:18:11;2.00;;;1.90;;
12818;SDS011;6474;53.474;9.894;2023-03-23T04:20:40;2.40;;;2.30;;
12818;SDS011;6474;53.474;9.894;2023-03-23T04:23:07;2.13;;;2.13;;
12818;SDS011;6474;53.474;9.894;2023-03-23T04:25:34;5.50;;;2.43;;
12818;SDS011;6474;53.474;9.894;2023-03-23T04:28:02;2.17;;;2.07;;
12818;SDS011;6474;53.474;9.894;2023-03-23T04:30:29;2.50;;;2.30;;
12818;SDS011;6474;53.474;9.894;2023-03-23T04:32:57;2.30;;;2.20;;
12818;SDS011;6474;53.474;9.894;2023-03-23T04:35:26;2.20;;;2.10;;
12818;SDS011;6474;53.474;9.894;2023-03-23T04:37:54;2.70;;;2.60;;
12818;SDS011;6474;53.474;9.894;2023-03-23T04:40:21;2.80;;;2.70;;
12818;SDS011;6474;53.474;9.894;2023-03-23T04:42:49;2.63;;;2.53;;
12818;SDS011;6474;53.474;9.894;2023-03-23T04:45:18;2.70;;;2.50;;
12818;SDS011;6474;53.474;9.894;2023-03-23T04:47:47;2.70;;;2.60;;
12818;SDS011;6474;53.474;9.894;2023-03-23T04:50:18;2.50;;;2.43;;
12818;SDS011;6474;53.474;9.894;2023-03-23T04:52:49;3.13;;;2.93;;
12818;SDS011;6474;53.474;9.894;2023-03-23T04:55:16;2.40;;;2.30;;
12818;SDS011;6474;53.474;9.894;2023-03-23T04:57:44;2.13;;;2.03;;
12818;SDS011;6474;53.474;9.894;2023-03-23T05:00:11;3.40;;;3.10;;
12818;SDS011;6474;53.474;9.894;2023-03-23T05:02:42;2.83;;;2.70;;
12818;SDS011;6474;53.474;9.894;2023-03-23T05:05:12;2.00;;;1.90;;
12818;SDS011;6474;53.474;9.894;2023-03-23T05:07:40;2.87;;;2.67;;
12818;SDS011;6474;53.474;9.894;2023-03-23T05:10:08;1.80;;;1.80;;
12818;SDS011;6474;53.474;9.894;2023-03-23T05:12:36;2.40;;;2.30;;
12818;SDS011;6474;53.474;9.894;2023-03-23T05:15:04;2.40;;;2.33;;
12818;SDS011;6474;53.474;9.894;2023-03-23T05:17:32;2.27;;;2.27;;
12818;SDS011;6474;53.474;9.894;2023-03-23T05:20:00;2.53;;;2.33;;
12818;SDS011;6474;53.474;9.894;2023-03-23T05:22:30;2.00;;;1.90;;
12818;SDS011;6474;53.474;9.894;2023-03-23T05:24:57;2.33;;;2.27;;
12818;SDS011;6474;53.474;9.894;2023-03-23T05:27:24;1.87;;;1.87;;
12818;SDS011;6474;53.474;9.894;2023-03-23T05:29:53;2.20;;;2.10;;
12818;SDS011;6474;53.474;9.894;2023-03-23T05:32:20;2.23;;;2.13;;
12818;SDS011;6474;53.474;9.894;2023-03-23T05:34:54;1.87;;;1.87;;
12818;SDS011;6474;53.474;9.894;2023-03-23T05:37:23;1.77;;;1.77;;
12818;SDS011;6474;53.474;9.894;2023-03-23T05:39:51;2.07;;;1.93;;
12818;SDS011;6474;53.474;9.894;2023-03-23T05:42:20;1.87;;;1.73;;
12818;SDS011;6474;53.474;9.894;2023-03-23T05:44:47;1.57;;;1.57;;
12818;SDS011;6474;53.474;9.894;2023-03-23T05:47:14;2.20;;;2.10;;
12818;SDS011;6474;53.474;9.894;2023-03-23T05:49:41;2.00;;;2.00;;
12818;SDS011;6474;53.474;9.894;2023-03-23T05:52:08;2.23;;;1.77;;
12818;SDS011;6474;53.474;9.894;2023-03-23T05:54:36;1.70;;;1.70;;
12818;SDS011;6474;53.474;9.894;2023-03-23T05:57:03;1.60;;;1.60;;
12818;SDS011;6474;53.474;9.894;2023-03-23T05:59:30;2.00;;;1.90;;
12818;SDS011;6474;53.474;9.894;2023-03-23T06:01:58;2.00;;;2.00;;
12818;SDS011;6474;53.474;9.894;2023-03-23T06:04:25;1.40;;;1.30;;
12818;SDS011;6474;53.474;9.894;2023-03-23T06:06:52;1.20;;;1.20;;
12818;SDS011;6474;53.474;9.894;2023-03-23T06:09:19;1.33;;;1.27;;
12818;SDS011;6474;53.474;9.894;2023-03-23T06:11:49;1.60;;;1.60;;
12818;SDS011;6474;53.474;9.894;2023-03-23T06:14:17;1.60;;;1.50;;
12818;SDS011;6474;53.474;9.894;2023-03-23T06:16:44;2.13;;;1.93;;
12818;SDS011;6474;53.474;9.894;2023-03-23T06:19:11;1.47;;;1.47;;
12818;SDS011;6474;53.474;9.894;2023-03-23T06:21:37;1.60;;;1.60;;
12818;SDS011;6474;53.474;9.894;2023-03-23T06:24:05;1.07;;;1.07;;
12818;SDS011;6474;53.474;9.894;2023-03-23T06:26:33;1.33;;;1.23;;
12818;SDS011;6474;53.474;9.894;2023-03-23T06:29:02;2.50;;;2.30;;
12818;SDS011;6474;53.474;9.894;2023-03-23T06:31:36;1.20;;;1.20;;
12818;SDS011;6474;53.474;9.894;2023-03-23T06:34:04;1.20;;;1.20;;
12818;SDS011;6474;53.474;9.894;2023-03-23T06:36:31;1.43;;;1.43;;
12818;SDS011;6474;53.474;9.894;2023-03-23T06:38:57;1.27;;;1.27;;
12818;SDS011;6474;53.474;9.894;2023-03-23T06:41:24;1.63;;;1.53;;
12818;SDS011;6474;53.474;9.894;2023-03-23T06:43:51;1.57;;;1.57;;
12818;SDS011;6474;53.474;9.894;2023-03-23T06:46:20;1.70;;;1.60;;
12818;SDS011;6474;53.474;9.894;2023-03-23T06:48:46;1.30;;;1.30;;
12818;SDS011;6474;53.474;9.894;2023-03-23T06:51:14;0.80;;;0.80;;
12818;SDS011;6474;53.474;9.894;2023-03-23T06:53:42;1.30;;;1.30;;
12818;SDS011;6474;53.474;9.894;2023-03-23T06:56:08;2.83;;;1.17;;
12818;SDS011;6474;53.474;9.894;2023-03-23T06:58:36;1.27;;;1.27;;
12818;SDS011;6474;53.474;9.894;2023-03-23T07:01:04;1.30;;;1.30;;
12818;SDS011;6474;53.474;9.894;2023-03-23T07:03:33;1.50;;;1.50;;
12818;SDS011;6474;53.474;9.894;2023-03-23T07:06:00;1.07;;;1.07;;
12818;SDS011;6474;53.474;9.894;2023-03-23T07:08:28;1.00;;;1.00;;
12818;SDS011;6474;53.474;9.894;2023-03-23T07:10:55;1.33;;;1.33;;
12818;SDS011;6474;53.474;9.894;2023-03-23T07:13:22;1.27;;;1.27;;
12818;SDS011;6474;53.474;9.894;2023-03-23T07:15:49;2.50;;;1.30;;
12818;SDS011;6474;53.474;9.894;2023-03-23T07:18:16;4.30;;;1.63;;
12818;SDS011;6474;53.474;9.894;2023-03-23T07:20:46;1.20;;;1.20;;
12818;SDS011;6474;53.474;9.894;2023-03-23T07:23:13;1.80;;;1.70;;
12818;SDS011;6474;53.474;9.894;2023-03-23T07:25:40;1.43;;;1.30;;
12818;SDS011;6474;53.474;9.894;2023-03-23T07:28:07;1.43;;;1.33;;
12818;SDS011;6474;53.474;9.894;2023-03-23T07:30:34;1.10;;;1.10;;
12818;SDS011;6474;53.474;9.894;2023-03-23T07:33:03;3.60;;;1.23;;
12818;SDS011;6474;53.474;9.894;2023-03-23T07:35:31;1.07;;;1.07;;
12818;SDS011;6474;53.474;9.894;2023-03-23T07:37:59;2.27;;;1.27;;
12818;SDS011;6474;53.474;9.894;2023-03-23T07:40:27;1.90;;;1.30;;
12818;SDS011;6474;53.474;9.894;2023-03-23T07:42:54;1.13;;;1.13;;
12818;SDS011;6474;53.474;9.894;2023-03-23T07:45:23;1.17;;;1.17;;
12818;SDS011;6474;53.474;9.894;2023-03-23T07:47:50;1.37;;;1.37;;
12818;SDS011;6474;53.474;9.894;2023-03-23T07:50:18;1.87;;;1.63;;
12818;SDS011;6474;53.474;9.894;2023-03-23T07:52:47;1.53;;;1.53;;
12818;SDS011;6474;53.474;9.894;2023-03-23T07:55:15;1.57;;;1.57;;
12818;SDS011;6474;53.474;9.894;2023-03-23T07:57:43;1.53;;;1.53;;
12818;SDS011;6474;53.474;9.894;2023-03-23T08:00:10;1.67;;;1.63;;
12818;SDS011;6474;53.474;9.894;2023-03-23T08:02:44;1.13;;;1.13;;
12818;SDS011;6474;53.474;9.894;2023-03-23T08:05:11;1.90;;;1.77;;
12818;SDS011;6474;53.474;9.894;2023-03-23T08:07:39;1.20;;;1.20;;
12818;SDS011;6474;53.474;9.894;2023-03-23T08:10:07;1.57;;;1.47;;
12818;SDS011;6474;53.474;9.894;2023-03-23T08:12:38;1.50;;;1.50;;
12818;SDS011;6474;53.474;9.894;2023-03-23T08:15:06;3.40;;;1.40;;
12818;SDS011;6474;53.474;9.894;2023-03-23T08:17:34;1.33;;;1.33;;
12818;SDS011;6474;53.474;9.894;2023-03-23T08:20:02;1.37;;;1.37;;
12818;SDS011;6474;53.474;9.894;2023-03-23T08:22:36;1.43;;;1.43;;
12818;SDS011;6474;53.474;9.894;2023-03-23T08:25:03;2.37;;;2.23;;
12818;SDS011;6474;53.474;9.894;2023-03-23T08:27:32;1.40;;;1.40;;
12818;SDS011;6474;53.474;9.894;2023-03-23T08:30:00;1.77;;;1.73;;
12818;SDS011;6474;53.474;9.894;2023-03-23T08:32:30;2.77;;;1.77;;
12818;SDS011;6474;53.474;9.894;2023-03-23T08:34:57;1.47;;;1.47;;
12818;SDS011;6474;53.474;9.894;2023-03-23T08:37:24;1.33;;;1.33;;
12818;SDS011;6474;53.474;9.894;2023-03-23T08:39:51;1.00;;;1.00;;
12818;SDS011;6474;53.474;9.894;2023-03-23T08:42:19;1.50;;;1.50;;
12818;SDS011;6474;53.474;9.894;2023-03-23T08:44:45;1.23;;;1.23;;
12818;SDS011;6474;53.474;9.894;2023-03-23T08:47:14;1.00;;;1.00;;
12818;SDS011;6474;53.474;9.894;2023-03-23T08:49:41;1.40;;;1.40;;
12818;SDS011;6474;53.474;9.894;2023-03-23T08:52:08;3.17;;;1.20;;
12818;SDS011;6474;53.474;9.894;2023-03-23T08:54:35;1.10;;;1.10;;
12818;SDS011;6474;53.474;9.894;2023-03-23T08:57:03;0.83;;;0.83;;
12818;SDS011;6474;53.474;9.894;2023-03-23T08:59:29;0.90;;;0.90;;
12818;SDS011;6474;53.474;9.894;2023-03-23T09:01:56;2.93;;;0.90;;
12818;SDS011;6474;53.474;9.894;2023-03-23T09:04:24;0.80;;;0.80;;
12818;SDS011;6474;53.474;9.894;2023-03-23T09:06:54;1.10;;;1.00;;
12818;SDS011;6474;53.474;9.894;2023-03-23T09:09:22;1.50;;;0.73;;
12818;SDS011;6474;53.474;9.894;2023-03-23T09:11:49;0.50;;;0.50;;
12818;SDS011;6474;53.474;9.894;2023-03-23T09:14:15;1.40;;;0.60;;
12818;SDS011;6474;53.474;9.894;2023-03-23T09:16:43;0.43;;;0.33;;
12818;SDS011;6474;53.474;9.894;2023-03-23T09:19:10;0.70;;;0.70;;
12818;SDS011;6474;53.474;9.894;2023-03-23T09:21:38;0.50;;;0.50;;
12818;SDS011;6474;53.474;9.894;2023-03-23T09:24:05;0.50;;;0.50;;
12818;SDS011;6474;53.474;9.894;2023-03-23T09:26:32;1.17;;;0.67;;
12818;SDS011;6474;53.474;9.894;2023-03-23T09:28:59;3.40;;;0.90;;
12818;SDS011;6474;53.474;9.894;2023-03-23T09:31:25;0.93;;;0.70;;
12818;SDS011;6474;53.474;9.894;2023-03-23T09:33:53;0.50;;;0.50;;
12818;SDS011;6474;53.474;9.894;2023-03-23T09:36:22;1.40;;;0.90;;
12818;SDS011;6474;53.474;9.894;2023-03-23T09:38:52;2.63;;;0.53;;
12818;SDS011;6474;53.474;9.894;2023-03-23T09:44:18;2.00;;;1.00;;
12818;SDS011;6474;53.474;9.894;2023-03-23T09:46:53;0.93;;;0.93;;
12818;SDS011;6474;53.474;9.894;2023-03-23T09:49:26;2.00;;;0.70;;
12818;SDS011;6474;53.474;9.894;2023-03-23T09:51:56;0.30;;;0.30;;
12818;SDS011;6474;53.474;9.894;2023-03-23T09:54:30;0.40;;;0.40;;
12818;SDS011;6474;53.474;9.894;2023-03-23T09:57:02;0.50;;;0.50;;
12818;SDS011;6474;53.474;9.894;2023-03-23T09:59:36;0.63;;;0.63;;
12818;SDS011;6474;53.474;9.894;2023-03-23T10:02:11;0.57;;;0.57;;
12818;SDS011;6474;53.474;9.894;2023-03-23T10:04:43;0.70;;;0.70;;
12818;SDS011;6474;53.474;9.894;2023-03-23T10:07:13;0.90;;;0.90;;
12818;SDS011;6474;53.474;9.894;2023-03-23T10:09:43;0.43;;;0.43;;
12818;SDS011;6474;53.474;9.894;2023-03-23T10:12:15;0.97;;;0.73;;
12818;SDS011;6474;53.474;9.894;2023-03-23T10:14:59;3.10;;;0.93;;
12818;SDS011;6474;53.474;9.894;2023-03-23T10:17:37;4.87;;;0.67;;
12818;SDS011;6474;53.474;9.894;2023-03-23T10:20:18;2.10;;;1.03;;
12818;SDS011;6474;53.474;9.894;2023-03-23T10:22:55;0.60;;;0.60;;
12818;SDS011;6474;53.474;9.894;2023-03-23T10:25:31;2.33;;;0.90;;
12818;SDS011;6474;53.474;9.894;2023-03-23T10:28:04;3.10;;;0.90;;
12818;SDS011;6474;53.474;9.894;2023-03-23T10:30:38;6.00;;;1.13;;
12818;SDS011;6474;53.474;9.894;2023-03-23T10:33:12;0.60;;;0.60;;
12818;SDS011;6474;53.474;9.894;2023-03-23T10:35:45;1.27;;;0.87;;
12818;SDS011;6474;53.474;9.894;2023-03-23T10:38:17;4.33;;;1.10;;
12818;SDS011;6474;53.474;9.894;2023-03-23T10:40:49;0.83;;;0.80;;
12818;SDS011;6474;53.474;9.894;2023-03-23T10:43:19;3.03;;;0.70;;
12818;SDS011;6474;53.474;9.894;2023-03-23T10:45:48;4.13;;;0.77;;
12818;SDS011;6474;53.474;9.894;2023-03-23T10:48:22;5.53;;;1.63;;
12818;SDS011;6474;53.474;9.894;2023-03-23T10:50:52;1.87;;;1.00;;
12818;SDS011;6474;53.474;9.894;2023-03-23T10:53:31;4.47;;;0.70;;
12818;SDS011;6474;53.474;9.894;2023-03-23T10:56:18;3.00;;;1.23;;
12818;SDS011;6474;53.474;9.894;2023-03-23T10:59:15;1.50;;;1.07;;
12818;SDS011;6474;53.474;9.894;2023-03-23T11:02:00;1.40;;;1.30;;
12818;SDS011;6474;53.474;9.894;2023-03-23T11:04:53;1.00;;;1.00;;
12818;SDS011;6474;53.474;9.894;2023-03-23T11:07:24;1.60;;;1.03;;
12818;SDS011;6474;53.474;9.894;2023-03-23T11:09:55;0.70;;;0.70;;
12818;SDS011;6474;53.474;9.894;2023-03-23T11:12:24;2.63;;;0.90;;
12818;SDS011;6474;53.474;9.894;2023-03-23T11:14:51;1.27;;;0.90;;
12818;SDS011;6474;53.474;9.894;2023-03-23T11:17:20;1.87;;;1.10;;
12818;SDS011;6474;53.474;9.894;2023-03-23T11:19:49;2.93;;;1.40;;
12818;SDS011;6474;53.474;9.894;2023-03-23T11:22:20;2.30;;;0.70;;
12818;SDS011;6474;53.474;9.894;2023-03-23T11:24:52;0.87;;;0.87;;
12818;SDS011;6474;53.474;9.894;2023-03-23T11:27:20;1.10;;;1.10;;
12818;SDS011;6474;53.474;9.894;2023-03-23T11:29:50;0.80;;;0.80;;
12818;SDS011;6474;53.474;9.894;2023-03-23T11:32:23;2.33;;;1.57;;
12818;SDS011;6474;53.474;9.894;2023-03-23T11:34:57;3.30;;;1.23;;
12818;SDS011;6474;53.474;9.894;2023-03-23T11:37:28;2.13;;;1.10;;
12818;SDS011;6474;53.474;9.894;2023-03-23T11:39:59;1.00;;;1.00;;
12818;SDS011;6474;53.474;9.894;2023-03-23T11:42:34;3.47;;;1.23;;
12818;SDS011;6474;53.474;9.894;2023-03-23T11:45:12;1.23;;;1.23;;
12818;SDS011;6474;53.474;9.894;2023-03-23T11:47:43;1.30;;;1.20;;
12818;SDS011;6474;53.474;9.894;2023-03-23T11:50:18;1.53;;;1.00;;
12818;SDS011;6474;53.474;9.894;2023-03-23T11:52:49;1.00;;;1.00;;
12818;SDS011;6474;53.474;9.894;2023-03-23T11:55:22;0.90;;;0.90;;
12818;SDS011;6474;53.474;9.894;2023-03-23T11:57:51;2.53;;;1.00;;
12818;SDS011;6474;53.474;9.894;2023-03-23T12:00:21;1.60;;;1.50;;
12818;SDS011;6474;53.474;9.894;2023-03-23T12:05:55;1.70;;;1.40;;
12818;SDS011;6474;53.474;9.894;2023-03-23T12:08:32;1.50;;;1.40;;
12818;SDS011;6474;53.474;9.894;2023-03-23T12:11:20;0.90;;;0.90;;
12818;SDS011;6474;53.474;9.894;2023-03-23T12:13:56;1.80;;;0.90;;
12818;SDS011;6474;53.474;9.894;2023-03-23T12:16:42;2.40;;;1.00;;
12818;SDS011;6474;53.474;9.894;2023-03-23T12:19:18;1.20;;;0.87;;
12818;SDS011;6474;53.474;9.894;2023-03-23T12:21:53;2.50;;;0.97;;
12818;SDS011;6474;53.474;9.894;2023-03-23T12:24:31;1.40;;;0.90;;
12818;SDS011;6474;53.474;9.894;2023-03-23T12:27:08;0.93;;;0.93;;
12818;SDS011;6474;53.474;9.894;2023-03-23T12:29:50;1.03;;;1.03;;
12818;SDS011;6474;53.474;9.894;2023-03-23T12:32:31;0.90;;;0.90;;
12818;SDS011;6474;53.474;9.894;2023-03-23T12:35:13;3.13;;;0.90;;
12818;SDS011;6474;53.474;9.894;2023-03-23T12:37:52;1.17;;;1.07;;
12818;SDS011;6474;53.474;9.894;2023-03-23T12:40:45;2.00;;;1.27;;
12818;SDS011;6474;53.474;9.894;2023-03-23T12:43:21;1.13;;;1.13;;
12818;SDS011;6474;53.474;9.894;2023-03-23T12:45:57;6.40;;;1.53;;
12818;SDS011;6474;53.474;9.894;2023-03-23T12:48:34;1.30;;;1.20;;
12818;SDS011;6474;53.474;9.894;2023-03-23T12:51:08;1.30;;;1.27;;
12818;SDS011;6474;53.474;9.894;2023-03-23T12:53:42;1.20;;;1.10;;
12818;SDS011;6474;53.474;9.894;2023-03-23T12:56:17;1.20;;;1.10;;
12818;SDS011;6474;53.474;9.894;2023-03-23T12:58:49;2.30;;;1.10;;
12818;SDS011;6474;53.474;9.894;2023-03-23T13:01:21;1.40;;;1.00;;
12818;SDS011;6474;53.474;9.894;2023-03-23T13:03:53;1.20;;;1.10;;
12818;SDS011;6474;53.474;9.894;2023-03-23T13:06:23;0.93;;;0.93;;
12818;SDS011;6474;53.474;9.894;2023-03-23T13:08:56;5.13;;;1.23;;
12818;SDS011;6474;53.474;9.894;2023-03-23T13:11:32;4.13;;;1.00;;
12818;SDS011;6474;53.474;9.894;2023-03-23T13:14:03;1.40;;;1.30;;
12818;SDS011;6474;53.474;9.894;2023-03-23T13:16:41;0.87;;;0.87;;
12818;SDS011;6474;53.474;9.894;2023-03-23T13:19:16;0.93;;;0.93;;
12818;SDS011;6474;53.474;9.894;2023-03-23T13:21:50;1.43;;;1.33;;
12818;SDS011;6474;53.474;9.894;2023-03-23T13:24:22;1.60;;;1.17;;
12818;SDS011;6474;53.474;9.894;2023-03-23T13:26:52;1.40;;;1.30;;
12818;SDS011;6474;53.474;9.894;2023-03-23T13:29:22;3.27;;;1.30;;
12818;SDS011;6474;53.474;9.894;2023-03-23T13:31:52;0.60;;;0.60;;
12818;SDS011;6474;53.474;9.894;2023-03-23T13:34:32;1.23;;;0.70;;
12818;SDS011;6474;53.474;9.894;2023-03-23T13:37:02;0.80;;;0.80;;
12818;SDS011;6474;53.474;9.894;2023-03-23T13:39:31;0.97;;;0.97;;
12818;SDS011;6474;53.474;9.894;2023-03-23T13:42:03;0.80;;;0.80;;
12818;SDS011;6474;53.474;9.894;2023-03-23T13:44:54;2.23;;;0.90;;
12818;SDS011;6474;53.474;9.894;2023-03-23T13:47:26;2.47;;;0.80;;
12818;SDS011;6474;53.474;9.894;2023-03-23T13:49:58;1.38;;;1.20;;
12818;SDS011;6474;53.474;9.894;2023-03-23T13:52:36;0.70;;;0.70;;
12818;SDS011;6474;53.474;9.894;2023-03-23T13:55:21;1.20;;;0.93;;
12818;SDS011;6474;53.474;9.894;2023-03-23T13:58:10;1.17;;;0.70;;
12818;SDS011;6474;53.474;9.894;2023-03-23T14:00:47;2.03;;;0.90;;
12818;SDS011;6474;53.474;9.894;2023-03-23T14:03:17;0.90;;;0.90;;
12818;SDS011;6474;53.474;9.894;2023-03-23T14:05:49;0.53;;;0.53;;
12818;SDS011;6474;53.474;9.894;2023-03-23T14:08:21;3.83;;;0.93;;
12818;SDS011;6474;53.474;9.894;2023-03-23T14:10:51;0.40;;;0.40;;
12818;SDS011;6474;53.474;9.894;2023-03-23T14:13:22;1.47;;;0.63;;
12818;SDS011;6474;53.474;9.894;2023-03-23T14:15:55;1.70;;;0.80;;
12818;SDS011;6474;53.474;9.894;2023-03-23T14:18:25;2.10;;;0.97;;
12818;SDS011;6474;53.474;9.894;2023-03-23T14:20:59;0.50;;;0.50;;
12818;SDS011;6474;53.474;9.894;2023-03-23T14:23:26;0.47;;;0.47;;
12818;SDS011;6474;53.474;9.894;2023-03-23T14:25:58;0.60;;;0.60;;
12818;SDS011;6474;53.474;9.894;2023-03-23T14:28:32;0.60;;;0.60;;
12818;SDS011;6474;53.474;9.894;2023-03-23T14:31:03;0.50;;;0.50;;
12818;SDS011;6474;53.474;9.894;2023-03-23T14:33:31;0.67;;;0.60;;
12818;SDS011;6474;53.474;9.894;2023-03-23T14:35:59;0.87;;;0.47;;
12818;SDS011;6474;53.474;9.894;2023-03-23T14:38:26;1.30;;;0.60;;
12818;SDS011;6474;53.474;9.894;2023-03-23T14:41:00;0.60;;;0.60;;
12818;SDS011;6474;53.474;9.894;2023-03-23T14:43:29;1.50;;;0.70;;
12818;SDS011;6474;53.474;9.894;2023-03-23T14:45:59;0.37;;;0.37;;
12818;SDS011;6474;53.474;9.894;2023-03-23T14:48:28;0.50;;;0.50;;
12818;SDS011;6474;53.474;9.894;2023-03-23T14:50:56;0.47;;;0.47;;
12818;SDS011;6474;53.474;9.894;2023-03-23T14:53:28;0.60;;;0.60;;
12818;SDS011;6474;53.474;9.894;2023-03-23T14:56:00;0.40;;;0.40;;
12818;SDS011;6474;53.474;9.894;2023-03-23T14:58:29;0.50;;;0.50;;
12818;SDS011;6474;53.474;9.894;2023-03-23T15:00:57;0.70;;;0.60;;
12818;SDS011;6474;53.474;9.894;2023-03-23T15:03:26;0.40;;;0.40;;
12818;SDS011;6474;53.474;9.894;2023-03-23T15:05:55;2.53;;;1.23;;
12818;SDS011;6474;53.474;9.894;2023-03-23T15:08:27;0.70;;;0.70;;
12818;SDS011;6474;53.474;9.894;2023-03-23T15:10:58;0.70;;;0.70;;
12818;SDS011;6474;53.474;9.894;2023-03-23T15:13:31;0.93;;;0.93;;
12818;SDS011;6474;53.474;9.894;2023-03-23T15:16:05;0.40;;;0.40;;
12818;SDS011;6474;53.474;9.894;2023-03-23T15:18:38;0.60;;;0.60;;
12818;SDS011;6474;53.474;9.894;2023-03-23T15:21:11;0.70;;;0.60;;
12818;SDS011;6474;53.474;9.894;2023-03-23T15:23:47;0.90;;;0.90;;
12818;SDS011;6474;53.474;9.894;2023-03-23T15:26:22;1.23;;;0.60;;
12818;SDS011;6474;53.474;9.894;2023-03-23T15:29:00;1.40;;;0.60;;
12818;SDS011;6474;53.474;9.894;2023-03-23T15:31:42;0.83;;;0.83;;
12818;SDS011;6474;53.474;9.894;2023-03-23T15:34:14;0.70;;;0.60;;